sensor_id;sensor_type;location;lat;lon;timestamp;P1;durP1;ratioP1;P2;durP2;ratioP2
75148;SDS011;63724;47.470;19.166;2023-04-08T00:01:57;26.52;;;14.15;;
75148;SDS011;63724;47.470;19.166;2023-04-08T00:05:00;24.80;;;13.43;;
75148;SDS011;63724;47.470;19.166;2023-04-08T00:08:02;27.10;;;13.82;;
75148;SDS011;63724;47.470;19.166;2023-04-08T00:11:04;26.55;;;14.70;;
75148;SDS011;63724;47.470;19.166;2023-04-08T00:14:07;21.95;;;13.23;;
75148;SDS011;63724;47.470;19.166;2023-04-08T00:17:09;26.63;;;13.55;;
75148;SDS011;63724;47.470;19.166;2023-04-08T00:20:12;26.17;;;13.60;;
75148;SDS011;63724;47.470;19.166;2023-04-08T00:23:14;23.90;;;13.43;;
75148;SDS011;63724;47.470;19.166;2023-04-08T00:26:16;27.65;;;14.02;;
75148;SDS011;63724;47.470;19.166;2023-04-08T00:29:19;24.38;;;14.15;;
75148;SDS011;63724;47.470;19.166;2023-04-08T00:32:21;25.45;;;13.88;;
75148;SDS011;63724;47.470;19.166;2023-04-08T00:35:26;25.10;;;13.20;;
75148;SDS011;63724;47.470;19.166;2023-04-08T00:38:29;29.48;;;14.50;;
75148;SDS011;63724;47.470;19.166;2023-04-08T00:41:32;25.35;;;15.13;;
75148;SDS011;63724;47.470;19.166;2023-04-08T00:44:35;31.65;;;15.18;;
75148;SDS011;63724;47.470;19.166;2023-04-08T00:47:38;24.55;;;13.45;;
75148;SDS011;63724;47.470;19.166;2023-04-08T00:50:42;27.93;;;14.93;;
75148;SDS011;63724;47.470;19.166;2023-04-08T00:53:44;28.00;;;13.68;;
75148;SDS011;63724;47.470;19.166;2023-04-08T00:56:47;23.95;;;13.90;;
75148;SDS011;63724;47.470;19.166;2023-04-08T00:59:49;25.20;;;15.20;;
75148;SDS011;63724;47.470;19.166;2023-04-08T01:09:55;24.25;;;13.68;;
75148;SDS011;63724;47.470;19.166;2023-04-08T01:13:04;25.70;;;15.18;;
75148;SDS011;63724;47.470;19.166;2023-04-08T01:16:12;24.17;;;13.05;;
75148;SDS011;63724;47.470;19.166;2023-04-08T01:19:29;26.10;;;13.38;;
75148;SDS011;63724;47.470;19.166;2023-04-08T01:22:40;26.03;;;14.43;;
75148;SDS011;63724;47.470;19.166;2023-04-08T01:25:49;24.27;;;13.95;;
75148;SDS011;63724;47.470;19.166;2023-04-08T01:28:55;25.98;;;14.13;;
75148;SDS011;63724;47.470;19.166;2023-04-08T01:31:59;25.27;;;13.55;;
75148;SDS011;63724;47.470;19.166;2023-04-08T01:35:03;24.33;;;13.00;;
75148;SDS011;63724;47.470;19.166;2023-04-08T01:38:07;24.33;;;13.90;;
75148;SDS011;63724;47.470;19.166;2023-04-08T01:41:11;26.67;;;13.38;;
75148;SDS011;63724;47.470;19.166;2023-04-08T01:44:13;27.58;;;13.77;;
75148;SDS011;63724;47.470;19.166;2023-04-08T01:47:16;23.10;;;13.10;;
75148;SDS011;63724;47.470;19.166;2023-04-08T01:50:19;26.67;;;13.57;;
75148;SDS011;63724;47.470;19.166;2023-04-08T01:53:22;25.87;;;13.57;;
75148;SDS011;63724;47.470;19.166;2023-04-08T01:56:25;23.98;;;12.70;;
75148;SDS011;63724;47.470;19.166;2023-04-08T01:59:30;26.23;;;14.02;;
75148;SDS011;63724;47.470;19.166;2023-04-08T02:02:34;28.33;;;14.48;;
75148;SDS011;63724;47.470;19.166;2023-04-08T02:05:38;25.92;;;14.10;;
75148;SDS011;63724;47.470;19.166;2023-04-08T02:08:41;23.43;;;13.20;;
75148;SDS011;63724;47.470;19.166;2023-04-08T02:11:43;27.70;;;15.32;;
75148;SDS011;63724;47.470;19.166;2023-04-08T02:14:47;26.85;;;14.15;;
75148;SDS011;63724;47.470;19.166;2023-04-08T02:17:51;29.77;;;15.30;;
75148;SDS011;63724;47.470;19.166;2023-04-08T02:21:19;30.15;;;14.57;;
75148;SDS011;63724;47.470;19.166;2023-04-08T02:24:23;27.40;;;14.50;;
75148;SDS011;63724;47.470;19.166;2023-04-08T02:27:27;25.40;;;13.73;;
75148;SDS011;63724;47.470;19.166;2023-04-08T02:30:30;26.38;;;14.35;;
75148;SDS011;63724;47.470;19.166;2023-04-08T02:33:33;26.20;;;14.45;;
75148;SDS011;63724;47.470;19.166;2023-04-08T02:36:37;25.35;;;14.57;;
75148;SDS011;63724;47.470;19.166;2023-04-08T02:39:41;30.73;;;14.83;;
75148;SDS011;63724;47.470;19.166;2023-04-08T02:42:45;28.27;;;14.88;;
75148;SDS011;63724;47.470;19.166;2023-04-08T02:45:47;25.77;;;14.30;;
75148;SDS011;63724;47.470;19.166;2023-04-08T02:48:50;26.05;;;13.73;;
75148;SDS011;63724;47.470;19.166;2023-04-08T02:51:52;24.50;;;13.43;;
75148;SDS011;63724;47.470;19.166;2023-04-08T02:54:55;25.43;;;13.40;;
75148;SDS011;63724;47.470;19.166;2023-04-08T02:57:57;25.15;;;13.82;;
75148;SDS011;63724;47.470;19.166;2023-04-08T03:00:59;25.60;;;14.98;;
75148;SDS011;63724;47.470;19.166;2023-04-08T03:04:02;26.63;;;14.45;;
75148;SDS011;63724;47.470;19.166;2023-04-08T03:07:04;24.67;;;12.57;;
75148;SDS011;63724;47.470;19.166;2023-04-08T03:10:09;27.87;;;14.47;;
75148;SDS011;63724;47.470;19.166;2023-04-08T03:13:12;28.70;;;15.45;;
75148;SDS011;63724;47.470;19.166;2023-04-08T03:16:14;27.92;;;14.93;;
75148;SDS011;63724;47.470;19.166;2023-04-08T03:19:17;26.33;;;14.85;;
75148;SDS011;63724;47.470;19.166;2023-04-08T03:22:19;27.67;;;15.15;;
75148;SDS011;63724;47.470;19.166;2023-04-08T03:25:22;27.10;;;15.20;;
75148;SDS011;63724;47.470;19.166;2023-04-08T03:28:24;26.75;;;14.57;;
75148;SDS011;63724;47.470;19.166;2023-04-08T03:31:27;27.55;;;14.60;;
75148;SDS011;63724;47.470;19.166;2023-04-08T03:34:29;24.92;;;14.43;;
75148;SDS011;63724;47.470;19.166;2023-04-08T03:37:32;25.52;;;13.63;;
75148;SDS011;63724;47.470;19.166;2023-04-08T03:40:34;25.07;;;14.13;;
75148;SDS011;63724;47.470;19.166;2023-04-08T03:43:37;22.58;;;12.48;;
75148;SDS011;63724;47.470;19.166;2023-04-08T03:46:39;24.80;;;13.38;;
75148;SDS011;63724;47.470;19.166;2023-04-08T03:49:42;21.13;;;13.05;;
75148;SDS011;63724;47.470;19.166;2023-04-08T03:52:44;26.40;;;14.52;;
75148;SDS011;63724;47.470;19.166;2023-04-08T03:55:48;25.57;;;13.83;;
75148;SDS011;63724;47.470;19.166;2023-04-08T03:58:51;23.00;;;13.20;;
75148;SDS011;63724;47.470;19.166;2023-04-08T04:01:54;23.70;;;13.60;;
75148;SDS011;63724;47.470;19.166;2023-04-08T04:04:57;22.58;;;12.55;;
75148;SDS011;63724;47.470;19.166;2023-04-08T04:08:00;22.33;;;12.13;;
75148;SDS011;63724;47.470;19.166;2023-04-08T04:11:02;19.33;;;10.60;;
75148;SDS011;63724;47.470;19.166;2023-04-08T04:14:04;17.98;;;10.38;;
75148;SDS011;63724;47.470;19.166;2023-04-08T04:17:07;16.50;;;10.02;;
75148;SDS011;63724;47.470;19.166;2023-04-08T04:20:09;17.70;;;9.98;;
75148;SDS011;63724;47.470;19.166;2023-04-08T04:23:12;17.50;;;10.48;;
75148;SDS011;63724;47.470;19.166;2023-04-08T04:26:14;17.97;;;10.73;;
75148;SDS011;63724;47.470;19.166;2023-04-08T04:29:17;15.05;;;9.15;;
75148;SDS011;63724;47.470;19.166;2023-04-08T04:32:19;17.83;;;9.13;;
75148;SDS011;63724;47.470;19.166;2023-04-08T04:35:21;16.88;;;10.15;;
75148;SDS011;63724;47.470;19.166;2023-04-08T04:38:24;15.68;;;9.75;;
75148;SDS011;63724;47.470;19.166;2023-04-08T04:41:26;14.77;;;9.30;;
75148;SDS011;63724;47.470;19.166;2023-04-08T04:44:29;16.33;;;9.48;;
75148;SDS011;63724;47.470;19.166;2023-04-08T04:47:32;14.77;;;9.73;;
75148;SDS011;63724;47.470;19.166;2023-04-08T04:50:34;17.67;;;10.15;;
75148;SDS011;63724;47.470;19.166;2023-04-08T04:53:37;16.63;;;9.02;;
75148;SDS011;63724;47.470;19.166;2023-04-08T04:56:39;17.03;;;10.40;;
75148;SDS011;63724;47.470;19.166;2023-04-08T04:59:42;16.15;;;9.45;;
75148;SDS011;63724;47.470;19.166;2023-04-08T05:02:44;17.25;;;10.25;;
75148;SDS011;63724;47.470;19.166;2023-04-08T05:05:50;15.05;;;9.05;;
75148;SDS011;63724;47.470;19.166;2023-04-08T05:08:54;17.50;;;9.75;;
75148;SDS011;63724;47.470;19.166;2023-04-08T05:11:56;16.87;;;9.13;;
75148;SDS011;63724;47.470;19.166;2023-04-08T05:14:59;17.58;;;9.68;;
75148;SDS011;63724;47.470;19.166;2023-04-08T05:18:01;15.40;;;9.27;;
75148;SDS011;63724;47.470;19.166;2023-04-08T05:21:04;17.52;;;10.52;;
75148;SDS011;63724;47.470;19.166;2023-04-08T05:24:06;16.48;;;9.57;;
75148;SDS011;63724;47.470;19.166;2023-04-08T05:27:09;16.50;;;9.23;;
75148;SDS011;63724;47.470;19.166;2023-04-08T05:30:11;16.55;;;9.90;;
75148;SDS011;63724;47.470;19.166;2023-04-08T05:33:14;17.27;;;9.80;;
75148;SDS011;63724;47.470;19.166;2023-04-08T05:36:17;16.30;;;9.43;;
75148;SDS011;63724;47.470;19.166;2023-04-08T05:39:19;18.05;;;10.80;;
75148;SDS011;63724;47.470;19.166;2023-04-08T05:42:21;16.83;;;10.43;;
75148;SDS011;63724;47.470;19.166;2023-04-08T05:45:24;19.50;;;11.57;;
75148;SDS011;63724;47.470;19.166;2023-04-08T05:48:26;15.40;;;10.05;;
75148;SDS011;63724;47.470;19.166;2023-04-08T05:51:28;16.05;;;10.20;;
75148;SDS011;63724;47.470;19.166;2023-04-08T05:54:31;17.20;;;11.73;;
75148;SDS011;63724;47.470;19.166;2023-04-08T05:57:33;17.67;;;11.20;;
75148;SDS011;63724;47.470;19.166;2023-04-08T06:00:35;32.60;;;19.45;;
75148;SDS011;63724;47.470;19.166;2023-04-08T06:03:37;23.17;;;13.25;;
75148;SDS011;63724;47.470;19.166;2023-04-08T06:06:40;14.50;;;9.75;;
75148;SDS011;63724;47.470;19.166;2023-04-08T06:09:42;24.05;;;15.57;;
75148;SDS011;63724;47.470;19.166;2023-04-08T06:12:46;25.70;;;15.50;;
75148;SDS011;63724;47.470;19.166;2023-04-08T06:15:48;20.55;;;13.02;;
75148;SDS011;63724;47.470;19.166;2023-04-08T06:18:51;17.77;;;10.18;;
75148;SDS011;63724;47.470;19.166;2023-04-08T06:21:53;23.15;;;13.65;;
75148;SDS011;63724;47.470;19.166;2023-04-08T06:25:00;21.38;;;12.35;;
75148;SDS011;63724;47.470;19.166;2023-04-08T06:28:03;20.63;;;11.53;;
75148;SDS011;63724;47.470;19.166;2023-04-08T06:31:05;20.50;;;13.77;;
75148;SDS011;63724;47.470;19.166;2023-04-08T06:34:07;17.73;;;10.60;;
75148;SDS011;63724;47.470;19.166;2023-04-08T06:37:10;16.85;;;9.85;;
75148;SDS011;63724;47.470;19.166;2023-04-08T06:40:12;18.60;;;10.98;;
75148;SDS011;63724;47.470;19.166;2023-04-08T06:43:14;19.00;;;11.13;;
75148;SDS011;63724;47.470;19.166;2023-04-08T06:46:18;19.70;;;11.27;;
75148;SDS011;63724;47.470;19.166;2023-04-08T06:49:20;20.27;;;12.20;;
75148;SDS011;63724;47.470;19.166;2023-04-08T06:52:23;18.42;;;10.68;;
75148;SDS011;63724;47.470;19.166;2023-04-08T06:55:25;19.98;;;11.63;;
75148;SDS011;63724;47.470;19.166;2023-04-08T06:58:28;21.70;;;11.20;;
75148;SDS011;63724;47.470;19.166;2023-04-08T07:01:30;18.38;;;10.30;;
75148;SDS011;63724;47.470;19.166;2023-04-08T07:04:33;20.52;;;11.95;;
75148;SDS011;63724;47.470;19.166;2023-04-08T07:07:35;17.73;;;9.88;;
75148;SDS011;63724;47.470;19.166;2023-04-08T07:10:38;17.98;;;10.55;;
75148;SDS011;63724;47.470;19.166;2023-04-08T07:13:40;21.93;;;10.87;;
75148;SDS011;63724;47.470;19.166;2023-04-08T07:16:43;23.23;;;11.63;;
75148;SDS011;63724;47.470;19.166;2023-04-08T07:19:45;20.42;;;11.88;;
75148;SDS011;63724;47.470;19.166;2023-04-08T07:22:48;22.98;;;11.98;;
75148;SDS011;63724;47.470;19.166;2023-04-08T07:25:51;19.08;;;11.38;;
75148;SDS011;63724;47.470;19.166;2023-04-08T07:28:53;18.90;;;11.30;;
75148;SDS011;63724;47.470;19.166;2023-04-08T07:31:56;18.73;;;10.75;;
75148;SDS011;63724;47.470;19.166;2023-04-08T07:34:58;19.35;;;11.05;;
75148;SDS011;63724;47.470;19.166;2023-04-08T07:38:02;18.65;;;10.38;;
75148;SDS011;63724;47.470;19.166;2023-04-08T07:41:04;21.80;;;11.50;;
75148;SDS011;63724;47.470;19.166;2023-04-08T07:44:10;18.30;;;10.47;;
75148;SDS011;63724;47.470;19.166;2023-04-08T07:47:12;17.30;;;10.90;;
75148;SDS011;63724;47.470;19.166;2023-04-08T07:50:15;18.02;;;11.02;;
75148;SDS011;63724;47.470;19.166;2023-04-08T07:53:17;15.73;;;10.50;;
75148;SDS011;63724;47.470;19.166;2023-04-08T07:56:19;16.80;;;10.02;;
75148;SDS011;63724;47.470;19.166;2023-04-08T07:59:23;18.33;;;10.50;;
75148;SDS011;63724;47.470;19.166;2023-04-08T08:02:25;17.40;;;10.45;;
75148;SDS011;63724;47.470;19.166;2023-04-08T08:05:28;17.02;;;10.38;;
75148;SDS011;63724;47.470;19.166;2023-04-08T08:08:30;16.70;;;10.20;;
75148;SDS011;63724;47.470;19.166;2023-04-08T08:11:34;17.63;;;10.32;;
75148;SDS011;63724;47.470;19.166;2023-04-08T08:14:37;19.27;;;11.00;;
75148;SDS011;63724;47.470;19.166;2023-04-08T08:17:39;16.40;;;9.90;;
75148;SDS011;63724;47.470;19.166;2023-04-08T08:20:41;16.50;;;10.45;;
75148;SDS011;63724;47.470;19.166;2023-04-08T08:23:44;16.55;;;9.82;;
75148;SDS011;63724;47.470;19.166;2023-04-08T08:26:46;17.13;;;9.68;;
75148;SDS011;63724;47.470;19.166;2023-04-08T08:29:50;16.73;;;9.67;;
75148;SDS011;63724;47.470;19.166;2023-04-08T08:32:53;19.73;;;11.90;;
75148;SDS011;63724;47.470;19.166;2023-04-08T08:35:55;24.65;;;13.70;;
75148;SDS011;63724;47.470;19.166;2023-04-08T08:38:59;29.83;;;15.80;;
75148;SDS011;63724;47.470;19.166;2023-04-08T08:42:02;29.65;;;16.05;;
75148;SDS011;63724;47.470;19.166;2023-04-08T08:45:05;17.57;;;11.30;;
75148;SDS011;63724;47.470;19.166;2023-04-08T08:48:08;17.55;;;11.15;;
75148;SDS011;63724;47.470;19.166;2023-04-08T08:51:11;23.95;;;14.38;;
75148;SDS011;63724;47.470;19.166;2023-04-08T08:54:14;25.38;;;14.35;;
75148;SDS011;63724;47.470;19.166;2023-04-08T08:57:17;23.05;;;11.13;;
75148;SDS011;63724;47.470;19.166;2023-04-08T09:00:29;20.93;;;12.30;;
75148;SDS011;63724;47.470;19.166;2023-04-08T09:03:41;19.75;;;12.02;;
75148;SDS011;63724;47.470;19.166;2023-04-08T09:06:45;18.92;;;11.27;;
75148;SDS011;63724;47.470;19.166;2023-04-08T09:09:48;20.10;;;12.68;;
75148;SDS011;63724;47.470;19.166;2023-04-08T09:12:52;18.92;;;11.68;;
75148;SDS011;63724;47.470;19.166;2023-04-08T09:16:00;16.47;;;10.30;;
75148;SDS011;63724;47.470;19.166;2023-04-08T09:19:08;16.13;;;10.68;;
75148;SDS011;63724;47.470;19.166;2023-04-08T09:22:14;16.50;;;11.13;;
75148;SDS011;63724;47.470;19.166;2023-04-08T09:25:24;17.15;;;10.20;;
75148;SDS011;63724;47.470;19.166;2023-04-08T09:28:30;15.98;;;10.50;;
75148;SDS011;63724;47.470;19.166;2023-04-08T09:31:37;15.93;;;8.93;;
75148;SDS011;63724;47.470;19.166;2023-04-08T09:34:43;14.15;;;8.73;;
75148;SDS011;63724;47.470;19.166;2023-04-08T09:37:45;15.52;;;10.15;;
75148;SDS011;63724;47.470;19.166;2023-04-08T09:40:48;14.90;;;9.30;;
75148;SDS011;63724;47.470;19.166;2023-04-08T09:43:52;15.60;;;9.32;;
75148;SDS011;63724;47.470;19.166;2023-04-08T09:50:31;14.52;;;9.30;;
75148;SDS011;63724;47.470;19.166;2023-04-08T09:53:45;13.32;;;8.88;;
75148;SDS011;63724;47.470;19.166;2023-04-08T09:57:04;13.82;;;8.93;;
75148;SDS011;63724;47.470;19.166;2023-04-08T10:00:15;13.38;;;9.18;;
75148;SDS011;63724;47.470;19.166;2023-04-08T10:06:49;16.35;;;10.23;;
75148;SDS011;63724;47.470;19.166;2023-04-08T10:09:56;17.15;;;10.68;;
75148;SDS011;63724;47.470;19.166;2023-04-08T10:12:58;17.23;;;10.50;;
75148;SDS011;63724;47.470;19.166;2023-04-08T10:16:17;16.48;;;10.48;;
75148;SDS011;63724;47.470;19.166;2023-04-08T10:22:47;17.05;;;11.40;;
75148;SDS011;63724;47.470;19.166;2023-04-08T10:25:50;17.42;;;11.55;;
75148;SDS011;63724;47.470;19.166;2023-04-08T10:28:52;16.35;;;11.25;;
75148;SDS011;63724;47.470;19.166;2023-04-08T10:31:55;16.63;;;10.60;;
75148;SDS011;63724;47.470;19.166;2023-04-08T10:34:58;17.03;;;11.67;;
75148;SDS011;63724;47.470;19.166;2023-04-08T10:38:01;17.38;;;11.57;;
75148;SDS011;63724;47.470;19.166;2023-04-08T10:41:04;17.83;;;11.07;;
75148;SDS011;63724;47.470;19.166;2023-04-08T10:44:20;17.23;;;10.57;;
75148;SDS011;63724;47.470;19.166;2023-04-08T10:47:26;15.77;;;10.45;;
75148;SDS011;63724;47.470;19.166;2023-04-08T10:50:29;16.80;;;11.10;;
75148;SDS011;63724;47.470;19.166;2023-04-08T10:53:34;17.55;;;11.48;;
75148;SDS011;63724;47.470;19.166;2023-04-08T10:56:47;16.48;;;11.93;;
75148;SDS011;63724;47.470;19.166;2023-04-08T10:59:50;16.10;;;11.18;;
75148;SDS011;63724;47.470;19.166;2023-04-08T11:02:53;20.02;;;11.73;;
75148;SDS011;63724;47.470;19.166;2023-04-08T11:05:56;17.13;;;10.40;;
75148;SDS011;63724;47.470;19.166;2023-04-08T11:09:01;17.42;;;11.57;;
75148;SDS011;63724;47.470;19.166;2023-04-08T11:12:05;14.32;;;10.27;;
75148;SDS011;63724;47.470;19.166;2023-04-08T11:15:07;16.30;;;10.57;;
75148;SDS011;63724;47.470;19.166;2023-04-08T11:18:10;15.82;;;10.02;;
75148;SDS011;63724;47.470;19.166;2023-04-08T11:21:13;16.30;;;10.60;;
75148;SDS011;63724;47.470;19.166;2023-04-08T11:24:17;16.50;;;10.35;;
75148;SDS011;63724;47.470;19.166;2023-04-08T11:27:19;15.45;;;9.52;;
75148;SDS011;63724;47.470;19.166;2023-04-08T11:30:24;14.35;;;9.40;;
75148;SDS011;63724;47.470;19.166;2023-04-08T11:33:26;17.15;;;11.10;;
75148;SDS011;63724;47.470;19.166;2023-04-08T11:36:32;17.10;;;10.33;;
75148;SDS011;63724;47.470;19.166;2023-04-08T11:39:39;17.45;;;11.00;;
75148;SDS011;63724;47.470;19.166;2023-04-08T11:42:45;13.93;;;9.75;;
75148;SDS011;63724;47.470;19.166;2023-04-08T11:45:48;13.70;;;8.73;;
75148;SDS011;63724;47.470;19.166;2023-04-08T11:49:00;12.45;;;8.27;;
75148;SDS011;63724;47.470;19.166;2023-04-08T11:52:03;11.23;;;8.27;;
75148;SDS011;63724;47.470;19.166;2023-04-08T11:55:05;14.95;;;9.00;;
75148;SDS011;63724;47.470;19.166;2023-04-08T11:58:08;13.63;;;9.27;;
75148;SDS011;63724;47.470;19.166;2023-04-08T12:01:10;12.85;;;8.02;;
75148;SDS011;63724;47.470;19.166;2023-04-08T12:04:13;13.30;;;8.73;;
75148;SDS011;63724;47.470;19.166;2023-04-08T12:07:16;13.37;;;8.77;;
75148;SDS011;63724;47.470;19.166;2023-04-08T12:10:18;16.88;;;8.80;;
75148;SDS011;63724;47.470;19.166;2023-04-08T12:13:21;13.95;;;9.93;;
75148;SDS011;63724;47.470;19.166;2023-04-08T12:16:23;15.27;;;9.63;;
75148;SDS011;63724;47.470;19.166;2023-04-08T12:19:26;16.38;;;10.27;;
75148;SDS011;63724;47.470;19.166;2023-04-08T12:22:28;12.13;;;8.40;;
75148;SDS011;63724;47.470;19.166;2023-04-08T12:25:31;14.55;;;8.77;;
75148;SDS011;63724;47.470;19.166;2023-04-08T12:28:33;15.68;;;10.02;;
75148;SDS011;63724;47.470;19.166;2023-04-08T12:31:37;13.82;;;9.55;;
75148;SDS011;63724;47.470;19.166;2023-04-08T12:34:39;17.10;;;10.02;;
75148;SDS011;63724;47.470;19.166;2023-04-08T12:37:42;11.87;;;8.40;;
75148;SDS011;63724;47.470;19.166;2023-04-08T12:40:44;14.80;;;9.32;;
75148;SDS011;63724;47.470;19.166;2023-04-08T12:43:46;15.90;;;9.45;;
75148;SDS011;63724;47.470;19.166;2023-04-08T12:46:49;12.98;;;9.40;;
75148;SDS011;63724;47.470;19.166;2023-04-08T12:49:51;13.75;;;9.63;;
75148;SDS011;63724;47.470;19.166;2023-04-08T12:52:54;14.30;;;9.43;;
75148;SDS011;63724;47.470;19.166;2023-04-08T12:55:56;15.50;;;10.55;;
75148;SDS011;63724;47.470;19.166;2023-04-08T12:58:59;17.08;;;10.85;;
75148;SDS011;63724;47.470;19.166;2023-04-08T13:02:02;12.20;;;8.45;;
75148;SDS011;63724;47.470;19.166;2023-04-08T13:05:04;15.48;;;10.32;;
75148;SDS011;63724;47.470;19.166;2023-04-08T13:08:07;12.90;;;9.30;;
75148;SDS011;63724;47.470;19.166;2023-04-08T13:11:09;12.73;;;7.95;;
75148;SDS011;63724;47.470;19.166;2023-04-08T13:14:11;14.70;;;8.50;;
75148;SDS011;63724;47.470;19.166;2023-04-08T13:17:14;26.55;;;11.95;;
75148;SDS011;63724;47.470;19.166;2023-04-08T13:20:17;10.93;;;6.68;;
75148;SDS011;63724;47.470;19.166;2023-04-08T13:23:19;10.87;;;7.27;;
75148;SDS011;63724;47.470;19.166;2023-04-08T13:26:24;9.63;;;6.65;;
75148;SDS011;63724;47.470;19.166;2023-04-08T13:29:27;15.10;;;9.27;;
75148;SDS011;63724;47.470;19.166;2023-04-08T13:32:29;9.30;;;6.43;;
75148;SDS011;63724;47.470;19.166;2023-04-08T13:35:32;9.45;;;7.38;;
75148;SDS011;63724;47.470;19.166;2023-04-08T13:38:34;9.50;;;6.80;;
75148;SDS011;63724;47.470;19.166;2023-04-08T13:41:37;10.27;;;7.40;;
75148;SDS011;63724;47.470;19.166;2023-04-08T13:44:39;12.43;;;8.43;;
75148;SDS011;63724;47.470;19.166;2023-04-08T13:47:42;9.75;;;6.95;;
75148;SDS011;63724;47.470;19.166;2023-04-08T13:50:44;12.07;;;7.60;;
75148;SDS011;63724;47.470;19.166;2023-04-08T13:53:47;9.20;;;6.60;;
75148;SDS011;63724;47.470;19.166;2023-04-08T13:56:49;10.05;;;6.97;;
75148;SDS011;63724;47.470;19.166;2023-04-08T13:59:52;9.90;;;7.35;;
75148;SDS011;63724;47.470;19.166;2023-04-08T14:02:54;11.00;;;7.13;;
75148;SDS011;63724;47.470;19.166;2023-04-08T14:05:57;9.63;;;7.13;;
75148;SDS011;63724;47.470;19.166;2023-04-08T14:09:02;8.43;;;5.83;;
75148;SDS011;63724;47.470;19.166;2023-04-08T14:12:05;12.43;;;7.65;;
75148;SDS011;63724;47.470;19.166;2023-04-08T14:15:07;9.95;;;7.15;;
75148;SDS011;63724;47.470;19.166;2023-04-08T14:18:10;10.65;;;7.35;;
75148;SDS011;63724;47.470;19.166;2023-04-08T14:21:14;12.05;;;7.40;;
75148;SDS011;63724;47.470;19.166;2023-04-08T14:24:19;8.73;;;6.57;;
75148;SDS011;63724;47.470;19.166;2023-04-08T14:27:22;8.23;;;6.15;;
75148;SDS011;63724;47.470;19.166;2023-04-08T14:30:24;8.43;;;6.18;;
75148;SDS011;63724;47.470;19.166;2023-04-08T14:33:28;9.57;;;6.90;;
75148;SDS011;63724;47.470;19.166;2023-04-08T14:36:30;8.18;;;5.60;;
75148;SDS011;63724;47.470;19.166;2023-04-08T14:39:33;6.97;;;4.63;;
75148;SDS011;63724;47.470;19.166;2023-04-08T14:42:36;7.38;;;5.50;;
75148;SDS011;63724;47.470;19.166;2023-04-08T14:45:38;9.90;;;6.93;;
75148;SDS011;63724;47.470;19.166;2023-04-08T14:48:40;10.00;;;6.88;;
75148;SDS011;63724;47.470;19.166;2023-04-08T14:51:43;7.60;;;5.93;;
75148;SDS011;63724;47.470;19.166;2023-04-08T14:54:45;7.67;;;5.97;;
75148;SDS011;63724;47.470;19.166;2023-04-08T14:57:49;11.10;;;6.97;;
75148;SDS011;63724;47.470;19.166;2023-04-08T15:00:51;12.15;;;7.50;;
75148;SDS011;63724;47.470;19.166;2023-04-08T15:03:53;10.73;;;7.20;;
75148;SDS011;63724;47.470;19.166;2023-04-08T15:06:56;10.18;;;6.60;;
75148;SDS011;63724;47.470;19.166;2023-04-08T15:09:58;12.77;;;8.37;;
75148;SDS011;63724;47.470;19.166;2023-04-08T15:13:01;12.57;;;9.02;;
75148;SDS011;63724;47.470;19.166;2023-04-08T15:16:04;8.50;;;6.13;;
75148;SDS011;63724;47.470;19.166;2023-04-08T15:19:07;7.05;;;5.20;;
75148;SDS011;63724;47.470;19.166;2023-04-08T15:22:10;8.65;;;6.03;;
75148;SDS011;63724;47.470;19.166;2023-04-08T15:25:13;9.33;;;5.63;;
75148;SDS011;63724;47.470;19.166;2023-04-08T15:28:15;6.75;;;5.05;;
75148;SDS011;63724;47.470;19.166;2023-04-08T15:31:17;5.93;;;4.75;;
75148;SDS011;63724;47.470;19.166;2023-04-08T15:34:20;6.90;;;5.28;;
75148;SDS011;63724;47.470;19.166;2023-04-08T15:37:23;6.95;;;5.45;;
75148;SDS011;63724;47.470;19.166;2023-04-08T15:40:26;9.10;;;5.57;;
75148;SDS011;63724;47.470;19.166;2023-04-08T15:43:28;7.63;;;5.00;;
75148;SDS011;63724;47.470;19.166;2023-04-08T15:46:31;9.90;;;6.53;;
75148;SDS011;63724;47.470;19.166;2023-04-08T15:49:35;9.05;;;6.00;;
75148;SDS011;63724;47.470;19.166;2023-04-08T15:52:38;10.02;;;5.60;;
75148;SDS011;63724;47.470;19.166;2023-04-08T15:55:40;8.03;;;5.63;;
75148;SDS011;63724;47.470;19.166;2023-04-08T15:58:43;10.75;;;6.85;;
75148;SDS011;63724;47.470;19.166;2023-04-08T16:01:47;11.57;;;6.50;;
75148;SDS011;63724;47.470;19.166;2023-04-08T16:04:49;8.93;;;6.22;;
75148;SDS011;63724;47.470;19.166;2023-04-08T16:07:52;7.63;;;5.55;;
75148;SDS011;63724;47.470;19.166;2023-04-08T16:10:58;9.33;;;6.20;;
75148;SDS011;63724;47.470;19.166;2023-04-08T16:14:03;7.43;;;5.07;;
75148;SDS011;63724;47.470;19.166;2023-04-08T16:17:06;7.47;;;5.68;;
75148;SDS011;63724;47.470;19.166;2023-04-08T16:20:08;8.02;;;5.65;;
75148;SDS011;63724;47.470;19.166;2023-04-08T16:23:11;8.52;;;5.93;;
75148;SDS011;63724;47.470;19.166;2023-04-08T16:26:16;8.07;;;5.73;;
75148;SDS011;63724;47.470;19.166;2023-04-08T16:29:18;7.75;;;5.40;;
75148;SDS011;63724;47.470;19.166;2023-04-08T16:32:21;12.00;;;5.68;;
75148;SDS011;63724;47.470;19.166;2023-04-08T16:35:23;8.68;;;5.88;;
75148;SDS011;63724;47.470;19.166;2023-04-08T16:38:26;8.98;;;5.60;;
75148;SDS011;63724;47.470;19.166;2023-04-08T16:41:31;7.73;;;5.93;;
75148;SDS011;63724;47.470;19.166;2023-04-08T16:44:36;8.95;;;5.68;;
75148;SDS011;63724;47.470;19.166;2023-04-08T16:47:38;8.80;;;6.55;;
75148;SDS011;63724;47.470;19.166;2023-04-08T16:50:42;9.18;;;6.70;;
75148;SDS011;63724;47.470;19.166;2023-04-08T16:53:45;10.07;;;7.00;;
75148;SDS011;63724;47.470;19.166;2023-04-08T16:56:47;9.17;;;6.40;;
75148;SDS011;63724;47.470;19.166;2023-04-08T16:59:49;8.30;;;5.63;;
75148;SDS011;63724;47.470;19.166;2023-04-08T17:02:52;8.43;;;5.85;;
75148;SDS011;63724;47.470;19.166;2023-04-08T17:06:04;9.00;;;5.95;;
75148;SDS011;63724;47.470;19.166;2023-04-08T17:09:13;9.27;;;6.47;;
75148;SDS011;63724;47.470;19.166;2023-04-08T17:12:15;9.23;;;6.30;;
75148;SDS011;63724;47.470;19.166;2023-04-08T17:15:17;8.55;;;6.40;;
75148;SDS011;63724;47.470;19.166;2023-04-08T17:18:20;9.07;;;6.70;;
75148;SDS011;63724;47.470;19.166;2023-04-08T17:21:22;9.77;;;7.28;;
75148;SDS011;63724;47.470;19.166;2023-04-08T17:24:24;10.25;;;7.43;;
75148;SDS011;63724;47.470;19.166;2023-04-08T17:27:27;8.23;;;6.60;;
75148;SDS011;63724;47.470;19.166;2023-04-08T17:30:29;10.77;;;7.53;;
75148;SDS011;63724;47.470;19.166;2023-04-08T17:33:32;12.93;;;8.18;;
75148;SDS011;63724;47.470;19.166;2023-04-08T17:36:35;11.43;;;7.97;;
75148;SDS011;63724;47.470;19.166;2023-04-08T17:39:37;10.27;;;7.38;;
75148;SDS011;63724;47.470;19.166;2023-04-08T17:42:42;14.17;;;8.03;;
75148;SDS011;63724;47.470;19.166;2023-04-08T17:45:44;10.63;;;7.75;;
75148;SDS011;63724;47.470;19.166;2023-04-08T17:48:47;11.52;;;7.22;;
75148;SDS011;63724;47.470;19.166;2023-04-08T17:51:50;11.50;;;7.78;;
75148;SDS011;63724;47.470;19.166;2023-04-08T17:54:52;14.52;;;8.25;;
75148;SDS011;63724;47.470;19.166;2023-04-08T17:57:55;12.70;;;8.03;;
75148;SDS011;63724;47.470;19.166;2023-04-08T18:00:57;13.15;;;8.70;;
75148;SDS011;63724;47.470;19.166;2023-04-08T18:03:59;13.90;;;8.75;;